createdAt,value
2018-05-31T00:00:07.003Z,24.6
2018-05-31T00:00:56.732Z,24.6
2018-05-31T00:01:46.842Z,24.6
2018-05-31T00:02:36.329Z,24.6
2018-05-31T00:03:26.975Z,24.6
2018-05-31T00:04:16.730Z,24.6
2018-05-31T00:05:07.430Z,24.6
2018-05-31T00:05:57.535Z,24.5
2018-05-31T00:06:47.379Z,24.5
2018-05-31T00:07:36.992Z,24.6
2018-05-31T00:08:27.110Z,24.5
2018-05-31T00:09:17.138Z,24.5
2018-05-31T00:10:08.371Z,24.5
2018-05-31T00:10:57.253Z,24.5
2018-05-31T00:11:47.622Z,24.5
2018-05-31T00:12:37.697Z,24.5
2018-05-31T00:13:29.549Z,24.5
2018-05-31T00:14:17.840Z,24.5
2018-05-31T00:15:08.151Z,24.5
2018-05-31T00:15:57.635Z,24.5
2018-05-31T00:16:50.743Z,24.5
2018-05-31T00:17:37.190Z,24.5
2018-05-31T00:18:28.102Z,24.5
2018-05-31T00:19:17.612Z,24.5
2018-05-31T00:20:10.488Z,24.5
2018-05-31T00:20:58.626Z,24.5
2018-05-31T00:21:48.694Z,24.5
2018-05-31T00:22:38.159Z,24.5
2018-05-31T00:23:29.776Z,24.5
2018-05-31T00:24:18.013Z,24.5
2018-05-31T00:25:09.066Z,24.5
2018-05-31T00:25:59.002Z,24.5
2018-05-31T00:26:48.485Z,24.5
2018-05-31T00:27:38.808Z,24.5
2018-05-31T00:28:29.169Z,24.5
2018-05-31T00:29:18.136Z,24.5
2018-05-31T00:30:09.084Z,24.5
2018-05-31T00:30:59.069Z,24.5
2018-05-31T00:31:49.133Z,24.5
2018-05-31T00:32:39.511Z,24.5
2018-05-31T00:33:29.553Z,24.5
2018-05-31T00:34:19.378Z,24.4
2018-05-31T00:35:09.103Z,24.5
2018-05-31T00:35:59.725Z,24.5
2018-05-31T00:36:49.491Z,24.5
2018-05-31T00:37:39.522Z,24.4
2018-05-31T00:38:29.368Z,24.4
2018-05-31T00:39:20.257Z,24.4
2018-05-31T00:40:09.745Z,24.4
2018-05-31T00:41:00.140Z,24.4
2018-05-31T00:41:49.321Z,24.4
2018-05-31T00:42:41.625Z,24.4
2018-05-31T00:43:29.797Z,24.4
2018-05-31T00:44:20.393Z,24.4
2018-05-31T00:45:10.154Z,24.4
2018-05-31T00:46:02.480Z,24.4
2018-05-31T00:46:50.281Z,24.4
2018-05-31T00:47:38.914Z,24.4
2018-05-31T00:48:30.456Z,24.4
2018-05-31T00:49:24.064Z,24.4
2018-05-31T00:50:10.229Z,24.4
2018-05-31T00:51:00.567Z,24.4
2018-05-31T00:51:50.051Z,24.4
2018-05-31T00:52:42.703Z,24.4
2018-05-31T00:53:30.476Z,24.4
2018-05-31T00:54:21.229Z,24.4
2018-05-31T00:55:10.639Z,24.4
2018-05-31T00:56:00.644Z,24.4
2018-05-31T00:56:51.051Z,24.4
2018-05-31T00:57:41.127Z,24.4
2018-05-31T00:58:30.867Z,24.4
2018-05-31T00:59:20.639Z,24.4
2018-05-31T01:00:10.996Z,24.4
2018-05-31T01:01:01.062Z,24.4
2018-05-31T01:01:51.428Z,24.4
2018-05-31T01:02:41.188Z,24.4
2018-05-31T01:03:31.590Z,24.4
2018-05-31T01:04:21.059Z,24.4
2018-05-31T01:05:11.971Z,24.4
2018-05-31T01:06:01.462Z,24.4
2018-05-31T01:06:52.091Z,24.4
2018-05-31T01:07:42.163Z,24.4
2018-05-31T01:08:31.690Z,24.4
2018-05-31T01:09:21.995Z,24.4
2018-05-31T01:10:11.774Z,24.4
2018-05-31T01:11:01.881Z,24.4
2018-05-31T01:11:53.301Z,24.4
2018-05-31T01:12:41.966Z,24.4
2018-05-31T01:13:31.747Z,24.4
2018-05-31T01:14:22.646Z,24.4
2018-05-31T01:15:14.342Z,24.4
2018-05-31T01:16:01.943Z,24.4
2018-05-31T01:16:52.859Z,24.4
2018-05-31T01:17:42.303Z,24.4
2018-05-31T01:18:35.643Z,24.4
2018-05-31T01:19:21.965Z,24.4
2018-05-31T01:20:12.240Z,24.4
2018-05-31T01:21:02.048Z,24.4
2018-05-31T01:21:55.379Z,24.4
2018-05-31T01:22:41.843Z,24.4
2018-05-31T01:23:33.382Z,24.4
2018-05-31T01:24:23.103Z,24.4
2018-05-31T01:25:14.460Z,24.4
2018-05-31T01:26:03.806Z,24.4
2018-05-31T01:26:53.369Z,24.4
2018-05-31T01:27:43.402Z,24.4
2018-05-31T01:28:33.439Z,24.4
2018-05-31T01:29:23.530Z,24.4
2018-05-31T01:30:13.610Z,24.4
2018-05-31T01:31:03.324Z,24.3
2018-05-31T01:31:53.979Z,24.4
2018-05-31T01:32:43.749Z,24.4
2018-05-31T01:33:33.565Z,24.4
2018-05-31T01:34:23.336Z,24.3
2018-05-31T01:35:14.319Z,24.3
2018-05-31T01:36:04.022Z,24.3
2018-05-31T01:36:54.080Z,24.3
2018-05-31T01:37:44.610Z,24.4
2018-05-31T01:38:33.920Z,24.3
2018-05-31T01:39:24.592Z,24.3
2018-05-31T01:40:14.453Z,24.3
2018-05-31T01:41:05.272Z,24.3
2018-05-31T01:41:54.207Z,24.3
2018-05-31T01:42:44.839Z,24.3
2018-05-31T01:43:33.717Z,24.3
2018-05-31T01:44:25.400Z,24.3
2018-05-31T01:45:14.129Z,24.3
2018-05-31T01:46:04.489Z,24.3
2018-05-31T01:46:54.502Z,24.3
2018-05-31T01:47:47.847Z,24.3
2018-05-31T01:48:34.980Z,24.3
2018-05-31T01:49:25.347Z,24.3
2018-05-31T01:50:15.131Z,24.3
2018-05-31T01:51:07.908Z,24.3
2018-05-31T01:51:55.260Z,24.3
2018-05-31T01:52:45.299Z,24.3
2018-05-31T01:53:35.099Z,24.3
2018-05-31T01:54:27.787Z,24.3
2018-05-31T01:55:15.517Z,24.3
2018-05-31T01:56:05.551Z,24.3
2018-05-31T01:56:55.948Z,24.3
2018-05-31T01:57:47.711Z,24.3
2018-05-31T01:58:36.093Z,24.3
2018-05-31T01:59:25.813Z,24.3
2018-05-31T02:00:16.146Z,24.3
2018-05-31T02:01:06.396Z,24.3
2018-05-31T02:01:55.694Z,24.3
2018-05-31T02:02:46.141Z,24.3
2018-05-31T02:03:35.810Z,24.3
2018-05-31T02:04:26.502Z,24.3
2018-05-31T02:05:16.237Z,24.3
2018-05-31T02:06:06.296Z,24.3
2018-05-31T02:06:55.749Z,24.3
2018-05-31T02:07:45.844Z,24.3
2018-05-31T02:08:36.790Z,24.3
2018-05-31T02:09:26.251Z,24.3
2018-05-31T02:10:17.534Z,24.3
2018-05-31T02:11:06.984Z,24.3
2018-05-31T02:11:57.027Z,24.3
2018-05-31T02:12:46.512Z,24.3
2018-05-31T02:13:37.678Z,24.3
2018-05-31T02:14:26.909Z,24.3
2018-05-31T02:15:17.068Z,24.3
2018-05-31T02:16:06.765Z,24.3
2018-05-31T02:16:59.164Z,24.3
2018-05-31T02:17:47.207Z,24.3
2018-05-31T02:18:36.690Z,24.3
2018-05-31T02:19:25.884Z,24.3
2018-05-31T02:20:20.865Z,24.3
2018-05-31T02:21:07.508Z,24.3
2018-05-31T02:21:57.227Z,24.3
2018-05-31T02:22:47.586Z,24.3
2018-05-31T02:23:39.880Z,24.3
2018-05-31T02:24:26.983Z,24.3
2018-05-31T02:25:18.025Z,24.3
2018-05-31T02:26:08.119Z,24.3
2018-05-31T02:27:00.405Z,24.3
2018-05-31T02:27:47.971Z,24.3
2018-05-31T02:28:38.001Z,24.3
2018-05-31T02:29:28.413Z,24.3
2018-05-31T02:30:17.926Z,24.3
2018-05-31T02:31:08.373Z,24.3
2018-05-31T02:31:58.290Z,24.2
2018-05-31T02:32:48.585Z,24.3
2018-05-31T02:33:38.649Z,24.2
2018-05-31T02:34:27.888Z,24.2
2018-05-31T02:35:18.870Z,24.2
2018-05-31T02:36:08.066Z,24.2
2018-05-31T02:36:58.376Z,24.2
2018-05-31T02:37:48.735Z,24.2
2018-05-31T02:38:37.630Z,24.2
2018-05-31T02:39:29.940Z,24.2
2018-05-31T02:40:18.588Z,24.2
2018-05-31T02:41:08.989Z,24.2
2018-05-31T02:41:59.275Z,24.2
2018-05-31T02:42:51.251Z,24.2
2018-05-31T02:43:38.850Z,24.2
2018-05-31T02:44:29.236Z,24.2
2018-05-31T02:45:19.257Z,24.2
2018-05-31T02:46:11.934Z,24.2
2018-05-31T02:46:59.377Z,24.2
2018-05-31T02:47:49.809Z,24.2
2018-05-31T02:48:39.536Z,24.2
2018-05-31T02:49:32.046Z,24.2
2018-05-31T02:50:19.978Z,24.2
2018-05-31T02:51:09.149Z,24.2
2018-05-31T02:51:59.526Z,24.2
2018-05-31T02:52:52.631Z,24.2
2018-05-31T02:53:39.924Z,24.1
2018-05-31T02:54:29.150Z,24.2
2018-05-31T02:55:20.376Z,24.2
2018-05-31T02:56:11.348Z,24.2
2018-05-31T02:56:59.937Z,24.1
2018-05-31T02:57:50.502Z,24.1
2018-05-31T02:58:40.574Z,24.1
2018-05-31T02:59:29.827Z,24.2
2018-05-31T03:00:20.775Z,24.2
2018-05-31T03:01:10.494Z,24.2
2018-05-31T03:02:00.586Z,24.1
2018-05-31T03:02:50.593Z,24.1
2018-05-31T03:03:40.640Z,24.1
2018-05-31T03:04:30.924Z,24.1
2018-05-31T03:05:21.457Z,24.1
2018-05-31T03:06:10.874Z,24.1
2018-05-31T03:07:01.033Z,24.1
2018-05-31T03:07:50.801Z,24.1
2018-05-31T03:08:42.091Z,24.1
2018-05-31T03:09:30.861Z,24.2
2018-05-31T03:10:20.931Z,24.1
2018-05-31T03:11:11.292Z,24.2
2018-05-31T03:12:03.914Z,24.2
2018-05-31T03:12:51.682Z,24.2
2018-05-31T03:13:41.469Z,24.2
2018-05-31T03:14:30.074Z,24.2
2018-05-31T03:15:23.384Z,24.2
2018-05-31T03:16:11.949Z,24.2
2018-05-31T03:17:01.171Z,24.2
2018-05-31T03:17:52.151Z,24.2
2018-05-31T03:18:45.239Z,24.2
2018-05-31T03:19:31.661Z,24.2
2018-05-31T03:20:21.674Z,24.1
2018-05-31T03:21:11.763Z,24.2
2018-05-31T03:22:02.467Z,24.2
2018-05-31T03:22:52.153Z,24.1
2018-05-31T03:23:41.617Z,24.2
2018-05-31T03:24:32.299Z,24.2
2018-05-31T03:25:21.833Z,24.2
2018-05-31T03:26:12.409Z,24.2
2018-05-31T03:27:02.152Z,24.2
2018-05-31T03:27:52.232Z,24.1
2018-05-31T03:28:42.296Z,24.2
2018-05-31T03:29:32.645Z,24.2
2018-05-31T03:30:22.454Z,24.2
2018-05-31T03:31:14.047Z,24.2
2018-05-31T03:32:02.844Z,24.2
2018-05-31T03:32:52.643Z,24.2
2018-05-31T03:33:42.087Z,24.2
2018-05-31T03:34:35.232Z,24.2
2018-05-31T03:35:23.193Z,24.2
2018-05-31T03:36:12.567Z,24.2
2018-05-31T03:37:03.519Z,24.3
2018-05-31T03:37:56.045Z,24.2
2018-05-31T03:38:43.629Z,24.2
2018-05-31T03:39:32.824Z,24.2
2018-05-31T03:40:23.446Z,24.2
2018-05-31T03:41:16.375Z,24.2
2018-05-31T03:42:03.923Z,24.2
2018-05-31T03:42:53.403Z,24.2
2018-05-31T03:43:42.830Z,24.2
2018-05-31T03:44:32.641Z,24.2
2018-05-31T03:45:22.515Z,24.1
2018-05-31T03:46:13.922Z,24.2
2018-05-31T03:47:04.298Z,24.1
2018-05-31T03:47:53.493Z,24.1
2018-05-31T03:48:43.539Z,24.1
2018-05-31T03:49:33.029Z,24.1
2018-05-31T03:50:23.942Z,24.1
2018-05-31T03:51:14.302Z,24.1
2018-05-31T03:52:04.123Z,24.1
2018-05-31T03:52:54.664Z,24.1
2018-05-31T03:53:44.167Z,24.1
2018-05-31T03:54:34.557Z,24.1
2018-05-31T03:55:24.016Z,24.1
2018-05-31T03:56:14.123Z,24.1
2018-05-31T03:57:05.676Z,24.1
2018-05-31T03:57:54.551Z,24.1
2018-05-31T03:58:45.133Z,24.1
2018-05-31T03:59:34.350Z,24.1
2018-05-31T04:00:27.523Z,24.1
2018-05-31T04:01:15.355Z,24.1
2018-05-31T04:02:05.443Z,24.1
2018-05-31T04:02:55.441Z,24.1
2018-05-31T04:03:48.060Z,24.1
2018-05-31T04:04:35.691Z,24.1
2018-05-31T04:05:25.370Z,24.1
2018-05-31T04:06:15.721Z,24.1
2018-05-31T04:07:08.918Z,24.1
2018-05-31T04:07:55.295Z,24.1
2018-05-31T04:08:45.643Z,24.1
2018-05-31T04:09:36.014Z,24.1
2018-05-31T04:10:27.583Z,24.1
2018-05-31T04:11:15.832Z,24.1
2018-05-31T04:12:05.279Z,24.1
2018-05-31T04:12:56.005Z,24.1
2018-05-31T04:13:45.447Z,24.1
2018-05-31T04:14:35.795Z,24.1
2018-05-31T04:15:26.472Z,24.1
2018-05-31T04:16:16.237Z,24.1
2018-05-31T04:17:05.979Z,24.1
2018-05-31T04:17:55.745Z,24.1
2018-05-31T04:18:46.359Z,24.1
2018-05-31T04:19:36.825Z,24.1
2018-05-31T04:20:26.020Z,24.1
2018-05-31T04:21:16.571Z,24.1
2018-05-31T04:22:06.341Z,24.1
2018-05-31T04:22:58.080Z,24.1
2018-05-31T04:23:46.491Z,24.1
2018-05-31T04:24:37.147Z,24.1
2018-05-31T04:25:26.882Z,24.1
2018-05-31T04:26:19.493Z,24.1
2018-05-31T04:27:06.765Z,24.1
2018-05-31T04:27:56.829Z,24.1
2018-05-31T04:28:46.866Z,24.1
2018-05-31T04:29:40.236Z,24.1
2018-05-31T04:30:27.297Z,24.1
2018-05-31T04:31:17.349Z,24.1
2018-05-31T04:32:07.126Z,24.1
2018-05-31T04:33:00.193Z,24.1
2018-05-31T04:33:48.498Z,24.1
2018-05-31T04:34:37.682Z,24.1
2018-05-31T04:35:27.952Z,24.1
2018-05-31T04:36:18.164Z,24.2
2018-05-31T04:37:07.249Z,24.1
2018-05-31T04:37:57.823Z,24.1
2018-05-31T04:38:48.205Z,24.1
2018-05-31T04:39:37.647Z,24.1
2018-05-31T04:40:27.757Z,24.2
2018-05-31T04:41:18.114Z,24.2
2018-05-31T04:42:08.484Z,24.1
2018-05-31T04:42:58.491Z,24.2
2018-05-31T04:43:48.557Z,24.2
2018-05-31T04:44:38.346Z,24.2
2018-05-31T04:45:29.769Z,24.2
2018-05-31T04:46:18.773Z,24.2
2018-05-31T04:47:08.570Z,24.2
2018-05-31T04:47:58.899Z,24.2
2018-05-31T04:48:50.603Z,24.2
2018-05-31T04:49:39.037Z,24.2
2018-05-31T04:50:28.865Z,24.2
2018-05-31T04:51:18.593Z,24.2
2018-05-31T04:52:11.939Z,24.2
2018-05-31T04:52:59.043Z,24.2
2018-05-31T04:53:48.159Z,24.2
2018-05-31T04:54:38.826Z,24.2
2018-05-31T04:55:32.319Z,24.2
2018-05-31T04:56:19.286Z,24.2
2018-05-31T04:57:09.029Z,24.2
2018-05-31T04:57:59.421Z,24.2
2018-05-31T04:58:51.937Z,24.2
2018-05-31T04:59:38.689Z,24.2
2018-05-31T05:00:29.923Z,24.2
2018-05-31T05:01:19.623Z,24.2
2018-05-31T05:02:10.083Z,24.2
2018-05-31T05:02:59.607Z,24.2
2018-05-31T05:03:49.329Z,24.2
2018-05-31T05:04:39.109Z,24.2
2018-05-31T05:05:30.024Z,24.2
2018-05-31T05:06:19.705Z,24.2
2018-05-31T05:07:10.073Z,24.3
2018-05-31T05:08:00.448Z,24.3
2018-05-31T05:08:49.452Z,24.2
2018-05-31T05:09:39.795Z,24.2
2018-05-31T05:10:29.551Z,24.3
2018-05-31T05:11:21.364Z,24.3
2018-05-31T05:12:09.983Z,24.3
2018-05-31T05:13:00.069Z,24.3
2018-05-31T05:13:49.998Z,24.2
2018-05-31T05:14:42.884Z,24.3
2018-05-31T05:15:30.724Z,24.2
2018-05-31T05:16:20.835Z,24.3
2018-05-31T05:17:10.260Z,24.2
2018-05-31T05:18:04.436Z,24.3
2018-05-31T05:18:51.255Z,24.3
2018-05-31T05:19:40.747Z,24.3
2018-05-31T05:20:31.106Z,24.3
2018-05-31T05:21:24.215Z,24.3
2018-05-31T05:22:10.927Z,24.3
2018-05-31T05:23:00.723Z,24.3
2018-05-31T05:23:51.048Z,24.3
2018-05-31T05:24:40.655Z,24.3
2018-05-31T05:25:30.722Z,24.3
2018-05-31T05:26:20.766Z,24.3
2018-05-31T05:27:11.941Z,24.3
2018-05-31T05:28:01.665Z,24.3
2018-05-31T05:28:51.749Z,24.3
2018-05-31T05:29:42.101Z,24.3
2018-05-31T05:30:31.855Z,24.3
2018-05-31T05:31:21.944Z,24.3
2018-05-31T05:32:11.699Z,24.3
2018-05-31T05:33:02.050Z,24.3
2018-05-31T05:33:52.368Z,24.3
2018-05-31T05:34:42.161Z,24.3
2018-05-31T05:35:31.623Z,24.3
2018-05-31T05:36:22.336Z,24.3
2018-05-31T05:37:14.006Z,24.3
2018-05-31T05:38:02.691Z,24.3
2018-05-31T05:38:52.746Z,24.3
2018-05-31T05:39:42.840Z,24.3
2018-05-31T05:40:36.128Z,24.3
2018-05-31T05:41:22.661Z,24.3
2018-05-31T05:42:12.230Z,24.3
2018-05-31T05:43:02.880Z,24.3
2018-05-31T05:43:55.991Z,24.3
2018-05-31T05:44:43.304Z,24.3
2018-05-31T05:45:33.087Z,24.3
2018-05-31T05:46:22.451Z,24.3
2018-05-31T05:47:13.266Z,24.3
2018-05-31T05:48:02.901Z,24.3
2018-05-31T05:48:53.238Z,24.3
2018-05-31T05:49:43.304Z,24.3
2018-05-31T05:50:32.527Z,24.3
2018-05-31T05:51:22.852Z,24.3
2018-05-31T05:52:13.499Z,24.3
2018-05-31T05:53:03.936Z,24.3
2018-05-31T05:53:53.702Z,24.3
2018-05-31T05:54:43.965Z,24.3
2018-05-31T05:55:33.554Z,24.3
2018-05-31T05:56:25.837Z,24.3
2018-05-31T05:57:13.878Z,24.3
2018-05-31T05:58:04.247Z,24.3
2018-05-31T05:58:54.296Z,24.3
2018-05-31T05:59:46.213Z,24.4
2018-05-31T06:00:33.976Z,24.3
2018-05-31T06:01:24.467Z,24.4
2018-05-31T06:02:14.263Z,24.3
2018-05-31T06:03:07.877Z,24.4
2018-05-31T06:03:54.663Z,24.3
2018-05-31T06:04:44.747Z,24.4
2018-05-31T06:05:34.520Z,24.3
2018-05-31T06:06:26.602Z,24.4
2018-05-31T06:07:14.353Z,24.4
2018-05-31T06:08:04.960Z,24.4
2018-05-31T06:08:54.612Z,24.4
2018-05-31T06:09:44.840Z,24.4
2018-05-31T06:10:35.245Z,24.4
2018-05-31T06:11:25.284Z,24.4
2018-05-31T06:12:14.450Z,24.4
2018-05-31T06:13:05.415Z,24.4
2018-05-31T06:13:55.182Z,24.4
2018-05-31T06:14:45.230Z,24.4
2018-05-31T06:15:37.462Z,24.4
2018-05-31T06:16:25.365Z,24.4
2018-05-31T06:17:14.825Z,24.4
2018-05-31T06:18:05.487Z,24.4
2018-05-31T06:18:58.162Z,24.4
2018-05-31T06:19:46.503Z,24.4
2018-05-31T06:20:35.370Z,24.4
2018-05-31T06:21:25.168Z,24.4
2018-05-31T06:22:17.738Z,24.4
2018-05-31T06:23:06.237Z,24.4
2018-05-31T06:23:55.052Z,24.4
2018-05-31T06:24:45.967Z,24.4
2018-05-31T06:25:38.879Z,24.4
2018-05-31T06:26:27.863Z,24.4
2018-05-31T06:27:16.186Z,24.4
2018-05-31T06:28:06.240Z,24.4
2018-05-31T06:28:57.858Z,24.4
2018-05-31T06:29:45.538Z,24.4
2018-05-31T06:30:36.445Z,24.4
2018-05-31T06:31:26.838Z,24.4
2018-05-31T06:32:16.881Z,24.4
2018-05-31T06:33:06.964Z,24.4
2018-05-31T06:33:56.980Z,24.4
2018-05-31T06:34:46.630Z,24.4
2018-05-31T06:35:36.738Z,24.4
2018-05-31T06:36:26.811Z,24.4
2018-05-31T06:37:17.971Z,24.4
2018-05-31T06:38:07.223Z,24.4
2018-05-31T06:38:57.282Z,24.4
2018-05-31T06:39:46.788Z,24.4
2018-05-31T06:40:37.417Z,24.4
2018-05-31T06:41:27.188Z,24.4
2018-05-31T06:42:17.250Z,24.4
2018-05-31T06:43:07.447Z,24.4
2018-05-31T06:43:56.883Z,24.4
2018-05-31T06:44:47.185Z,24.4
2018-05-31T06:45:37.733Z,24.4
2018-05-31T06:46:27.280Z,24.4
2018-05-31T06:47:17.134Z,24.4
2018-05-31T06:48:07.747Z,24.4
2018-05-31T06:48:57.764Z,24.4
2018-05-31T06:49:47.609Z,24.4
2018-05-31T06:50:37.399Z,24.4
2018-05-31T06:51:27.071Z,24.4
2018-05-31T06:52:17.976Z,24.4
2018-05-31T06:53:08.077Z,24.4
2018-05-31T06:53:58.172Z,24.4
2018-05-31T06:54:47.896Z,24.4
2018-05-31T06:55:37.715Z,24.4
2018-05-31T06:56:28.349Z,24.4
2018-05-31T06:57:18.355Z,24.4
2018-05-31T06:58:07.944Z,24.4
2018-05-31T06:58:58.503Z,24.4
2018-05-31T06:59:48.258Z,24.5
2018-05-31T07:00:38.658Z,24.5
2018-05-31T07:01:28.387Z,24.5
2018-05-31T07:02:17.932Z,24.5
2018-05-31T07:03:09.107Z,24.5
2018-05-31T07:03:58.868Z,24.5
2018-05-31T07:04:48.378Z,24.5
2018-05-31T07:05:39.042Z,24.5
2018-05-31T07:06:28.820Z,24.5
2018-05-31T07:07:19.156Z,24.5
2018-05-31T07:08:09.198Z,24.5
2018-05-31T07:08:59.000Z,24.5
2018-05-31T07:09:49.308Z,24.5
2018-05-31T07:10:38.837Z,24.5
2018-05-31T07:11:28.984Z,24.5
2018-05-31T07:12:19.811Z,24.5
2018-05-31T07:13:09.873Z,24.5
2018-05-31T07:13:59.656Z,24.5
2018-05-31T07:14:49.966Z,24.5
2018-05-31T07:15:39.814Z,24.5
2018-05-31T07:16:29.575Z,24.5
2018-05-31T07:17:19.929Z,24.5
2018-05-31T07:18:10.233Z,24.5
2018-05-31T07:19:00.290Z,24.6
2018-05-31T07:19:50.093Z,24.5
2018-05-31T07:20:40.227Z,24.5
2018-05-31T07:21:29.764Z,24.6
2018-05-31T07:22:20.632Z,24.5
2018-05-31T07:23:10.332Z,24.6
2018-05-31T07:23:59.969Z,24.6
2018-05-31T07:24:50.231Z,24.6
2018-05-31T07:25:40.328Z,24.6
2018-05-31T07:26:30.613Z,24.6
2018-05-31T07:27:21.305Z,24.6
2018-05-31T07:28:10.743Z,24.6
2018-05-31T07:29:01.113Z,24.6
2018-05-31T07:29:50.322Z,24.6
2018-05-31T07:30:41.069Z,24.6
2018-05-31T07:31:30.007Z,24.6
2018-05-31T07:32:20.505Z,24.6
2018-05-31T07:33:10.008Z,24.6
2018-05-31T07:34:01.527Z,24.6
2018-05-31T07:34:51.266Z,24.6
2018-05-31T07:35:41.354Z,24.6
2018-05-31T07:36:31.442Z,24.6
2018-05-31T07:37:21.160Z,24.6
2018-05-31T07:38:10.955Z,24.6
2018-05-31T07:39:01.598Z,24.6
2018-05-31T07:39:51.382Z,24.6
2018-05-31T07:40:41.484Z,24.6
2018-05-31T07:41:31.501Z,24.6
2018-05-31T07:42:21.872Z,24.6
2018-05-31T07:43:11.599Z,24.6
2018-05-31T07:44:01.985Z,24.6
2018-05-31T07:44:52.288Z,24.6
2018-05-31T07:45:42.361Z,24.6
2018-05-31T07:46:31.030Z,24.6
2018-05-31T07:47:22.177Z,24.6
2018-05-31T07:48:12.590Z,24.6
2018-05-31T07:49:02.669Z,24.6
2018-05-31T07:49:52.135Z,24.6
2018-05-31T07:50:42.505Z,24.6
2018-05-31T07:51:32.835Z,24.6
2018-05-31T07:52:22.410Z,24.6
2018-05-31T07:53:12.998Z,24.6
2018-05-31T07:54:02.512Z,24.6
2018-05-31T07:54:52.761Z,24.6
2018-05-31T07:55:42.556Z,24.6
2018-05-31T07:56:32.908Z,24.6
2018-05-31T07:57:23.270Z,24.6
2018-05-31T07:58:14.203Z,24.6
2018-05-31T07:59:02.800Z,24.6
2018-05-31T07:59:52.875Z,24.6
2018-05-31T08:00:42.479Z,24.6
2018-05-31T08:01:32.743Z,24.6
2018-05-31T08:02:23.417Z,24.6
2018-05-31T08:03:13.767Z,24.6
2018-05-31T08:04:03.501Z,24.6
2018-05-31T08:04:53.590Z,24.6
2018-05-31T08:05:43.300Z,24.6
2018-05-31T08:06:33.201Z,24.6
2018-05-31T08:07:24.040Z,24.6
2018-05-31T08:08:14.173Z,24.6
2018-05-31T08:09:03.640Z,24.6
2018-05-31T08:09:54.002Z,24.6
2018-05-31T08:10:43.580Z,24.6
2018-05-31T08:11:34.310Z,24.6
2018-05-31T08:12:23.230Z,24.6
2018-05-31T08:13:13.725Z,24.6
2018-05-31T08:14:04.580Z,24.6
2018-05-31T08:14:54.362Z,24.6
2018-05-31T08:15:44.189Z,24.6
2018-05-31T08:16:34.257Z,24.6
2018-05-31T08:17:24.610Z,24.6
2018-05-31T08:18:14.635Z,24.6
2018-05-31T08:19:04.410Z,24.6
2018-05-31T08:19:54.508Z,24.6
2018-05-31T08:20:44.908Z,24.6
2018-05-31T08:21:35.178Z,24.6
2018-05-31T08:22:24.913Z,24.6
2018-05-31T08:23:14.687Z,24.6
2018-05-31T08:24:04.762Z,24.6
2018-05-31T08:24:54.867Z,24.6
2018-05-31T08:25:44.628Z,24.6
2018-05-31T08:26:34.989Z,24.6
2018-05-31T08:27:24.725Z,24.6
2018-05-31T08:28:14.582Z,24.6
2018-05-31T08:29:05.490Z,24.6
2018-05-31T08:29:55.837Z,24.6
2018-05-31T08:30:45.853Z,24.6
2018-05-31T08:31:37.131Z,24.6
2018-05-31T08:32:25.700Z,24.6
2018-05-31T08:33:14.738Z,24.6
2018-05-31T08:34:06.119Z,24.6
2018-05-31T08:34:56.240Z,24.6
2018-05-31T08:35:46.246Z,24.6
2018-05-31T08:36:36.303Z,24.6
2018-05-31T08:37:26.316Z,24.6
2018-05-31T08:38:15.280Z,24.6
2018-05-31T08:39:05.648Z,24.6
2018-05-31T08:39:56.562Z,24.6
2018-05-31T08:40:46.336Z,24.6
2018-05-31T08:41:36.120Z,24.6
2018-05-31T08:42:26.485Z,24.6
2018-05-31T08:43:16.566Z,24.6
2018-05-31T08:44:07.117Z,24.6
2018-05-31T08:44:56.653Z,24.6
2018-05-31T08:45:46.746Z,24.6
2018-05-31T08:46:36.765Z,24.7
2018-05-31T08:47:26.281Z,24.6
2018-05-31T08:48:16.986Z,24.6
2018-05-31T08:49:06.263Z,24.6
2018-05-31T08:49:57.334Z,24.6
2018-05-31T08:50:47.095Z,24.6
2018-05-31T08:51:36.898Z,24.6
2018-05-31T08:52:27.206Z,24.6
2018-05-31T08:53:16.729Z,24.7
2018-05-31T08:54:07.705Z,24.6
2018-05-31T08:54:57.414Z,24.6
2018-05-31T08:55:46.234Z,24.6
2018-05-31T08:56:37.560Z,24.6
2018-05-31T08:57:27.193Z,24.6
2018-05-31T08:58:17.368Z,24.6
2018-05-31T08:59:08.040Z,24.6
2018-05-31T08:59:57.565Z,24.6
2018-05-31T09:00:48.238Z,24.6
2018-05-31T09:01:37.635Z,24.6
2018-05-31T09:02:28.283Z,24.6
2018-05-31T09:03:17.799Z,24.7
2018-05-31T09:04:08.136Z,24.7
2018-05-31T09:04:57.224Z,24.6
2018-05-31T09:05:48.317Z,24.7
2018-05-31T09:06:37.180Z,24.7
2018-05-31T09:07:28.672Z,24.7
2018-05-31T09:08:18.755Z,24.6
2018-05-31T09:09:08.287Z,24.6
2018-05-31T09:09:58.347Z,24.7
2018-05-31T09:10:48.927Z,24.7
2018-05-31T09:11:39.008Z,24.7
2018-05-31T09:12:28.821Z,24.7
2018-05-31T09:13:18.260Z,24.7
2018-05-31T09:14:08.924Z,24.7
2018-05-31T09:14:59.307Z,24.7
2018-05-31T09:15:48.748Z,24.7
2018-05-31T09:16:39.371Z,24.7
2018-05-31T09:17:28.966Z,24.7
2018-05-31T09:18:18.980Z,24.7
2018-05-31T09:19:09.276Z,24.7
2018-05-31T09:19:58.800Z,24.7
2018-05-31T09:20:48.836Z,24.7
2018-05-31T09:21:39.750Z,24.7
2018-05-31T09:22:29.549Z,24.7
2018-05-31T09:23:19.614Z,24.7
2018-05-31T09:24:09.660Z,24.7
2018-05-31T09:24:59.751Z,24.7
2018-05-31T09:25:48.911Z,24.7
2018-05-31T09:26:39.599Z,24.7
2018-05-31T09:27:29.662Z,24.7
2018-05-31T09:28:20.032Z,24.7
2018-05-31T09:29:10.092Z,24.7
2018-05-31T09:29:59.862Z,24.7
2018-05-31T09:30:50.437Z,24.7
2018-05-31T09:31:40.530Z,24.7
2018-05-31T09:32:30.026Z,24.7
2018-05-31T09:33:20.692Z,24.7
2018-05-31T09:34:10.175Z,24.7
2018-05-31T09:35:00.251Z,24.7
2018-05-31T09:35:50.644Z,24.7
2018-05-31T09:36:40.399Z,24.7
2018-05-31T09:37:30.712Z,24.8
2018-05-31T09:38:20.745Z,24.7
2018-05-31T09:39:10.829Z,24.7
2018-05-31T09:40:01.154Z,24.7
2018-05-31T09:40:51.299Z,24.7
2018-05-31T09:41:40.707Z,24.7
2018-05-31T09:42:30.236Z,24.7
2018-05-31T09:43:20.869Z,24.7
2018-05-31T09:44:11.501Z,24.7
2018-05-31T09:45:01.611Z,24.7
2018-05-31T09:45:51.613Z,24.7
2018-05-31T09:46:42.092Z,24.7
2018-05-31T09:47:31.792Z,24.8
2018-05-31T09:48:21.564Z,24.8
2018-05-31T09:49:10.763Z,24.8
2018-05-31T09:50:01.955Z,24.8
2018-05-31T09:50:52.050Z,24.8
2018-05-31T09:51:41.829Z,24.8
2018-05-31T09:52:31.350Z,24.8
2018-05-31T09:53:21.688Z,24.8
2018-05-31T09:54:11.457Z,24.7
2018-05-31T09:55:02.137Z,24.8
2018-05-31T09:55:52.408Z,24.8
2018-05-31T09:56:41.931Z,24.8
2018-05-31T09:57:32.025Z,24.8
2018-05-31T09:58:22.522Z,24.8
2018-05-31T09:59:11.540Z,24.8
2018-05-31T10:00:02.195Z,24.8
2018-05-31T10:00:51.954Z,24.8
2018-05-31T10:01:42.359Z,24.8
2018-05-31T10:02:32.363Z,24.8
2018-05-31T10:03:22.699Z,24.8
2018-05-31T10:04:12.505Z,24.8
2018-05-31T10:05:02.297Z,24.8
2018-05-31T10:05:52.901Z,24.8
2018-05-31T10:06:43.233Z,24.8
2018-05-31T10:07:33.056Z,24.8
2018-05-31T10:08:23.373Z,24.8
2018-05-31T10:09:13.188Z,24.8
2018-05-31T10:10:02.956Z,24.8
2018-05-31T10:10:53.562Z,24.8
2018-05-31T10:11:43.667Z,24.8
2018-05-31T10:12:33.432Z,24.8
2018-05-31T10:13:23.761Z,24.8
2018-05-31T10:14:12.997Z,24.8
2018-05-31T10:15:03.122Z,24.8
2018-05-31T10:15:53.687Z,24.8
2018-05-31T10:16:43.780Z,24.8
2018-05-31T10:17:34.098Z,24.8
2018-05-31T10:18:23.823Z,24.8
2018-05-31T10:19:13.630Z,24.8
2018-05-31T10:20:03.991Z,24.8
2018-05-31T10:20:54.067Z,24.8
2018-05-31T10:21:44.106Z,24.8
2018-05-31T10:22:34.050Z,24.8
2018-05-31T10:23:24.519Z,24.8
2018-05-31T10:24:14.306Z,24.8
2018-05-31T10:25:04.079Z,24.8
2018-05-31T10:25:54.491Z,24.8
2018-05-31T10:26:44.768Z,24.8
2018-05-31T10:27:34.593Z,24.8
2018-05-31T10:28:24.633Z,24.8
2018-05-31T10:29:13.875Z,24.8
2018-05-31T10:30:04.807Z,24.8
2018-05-31T10:30:55.116Z,24.8
2018-05-31T10:31:44.641Z,24.8
2018-05-31T10:32:35.001Z,24.8
2018-05-31T10:33:25.015Z,24.8
2018-05-31T10:34:15.056Z,24.8
2018-05-31T10:35:05.133Z,24.8
2018-05-31T10:35:55.263Z,24.8
2018-05-31T10:36:45.589Z,24.8
2018-05-31T10:37:34.796Z,24.8
2018-05-31T10:38:24.932Z,24.8
2018-05-31T10:39:15.453Z,24.8
2018-05-31T10:40:05.614Z,24.8
2018-05-31T10:40:55.889Z,24.8
2018-05-31T10:41:45.710Z,24.8
2018-05-31T10:42:34.924Z,24.8
2018-05-31T10:43:25.847Z,24.8
2018-05-31T10:44:15.611Z,24.8
2018-05-31T10:45:06.266Z,24.8
2018-05-31T10:45:55.726Z,24.8
2018-05-31T10:46:46.082Z,24.8
2018-05-31T10:47:36.448Z,24.8
2018-05-31T10:48:25.918Z,24.8
2018-05-31T10:49:15.646Z,24.8
2018-05-31T10:50:06.656Z,24.8
2018-05-31T10:50:56.359Z,24.8
2018-05-31T10:51:46.707Z,24.8
2018-05-31T10:52:36.239Z,24.8
2018-05-31T10:53:26.008Z,24.8
2018-05-31T10:54:16.353Z,24.8
2018-05-31T10:55:06.985Z,24.8
2018-05-31T10:55:56.775Z,24.8
2018-05-31T10:56:46.579Z,24.8
2018-05-31T10:57:37.151Z,24.8
2018-05-31T10:58:26.403Z,24.8
2018-05-31T10:59:17.056Z,24.8
2018-05-31T11:00:07.099Z,24.8
2018-05-31T11:00:56.835Z,24.8
2018-05-31T11:01:46.893Z,24.8
2018-05-31T11:02:37.519Z,24.8
2018-05-31T11:03:26.777Z,24.8
2018-05-31T11:04:17.652Z,24.8
2018-05-31T11:05:07.745Z,24.8
2018-05-31T11:05:57.306Z,24.8